WMKKWIMM

Guest
Details From WMKK - Kuala Lumpur Intl - Sepang
To WIMM - Medan/Polonia
Flight Number -
Tags generated
Created
Modified
Stats Distance 191 nm / 354 km
Max Altitude 20,900 ft / 6,370 m
Waypoints 3
Social Downloads 1
Likes 0
Share VATSIM

Download

Looking for another format? Having issues loading an existing format? Contact us
Advertisement - Login to hide

Notes

Basic altitude profile: - Ascent Rate: 2500ft/min - Ascent Speed: 250kts - Cruise Altitude: 35000ft - Cruise Speed: 420kts - Descent Rate: 1500ft/min - Descent Speed: 250kts Options: - Use NATs: yes - Use PACOTS: yes - Use low airways: no - Use high airways: yes

Route

WMKK PUGER WIMM

ID Type Via Altitude Latitude Longitude Leg Dist Tot Dist Heading (true) Name
O WMKK APT - 0 ft / 0 m 2.74558˚ 101.70991˚ - 0 nm - Kuala Lumpur Intl - Sepang
PUGER FIX - 20,900 ft / 6,370 m 3.40000˚ 100.29167˚ 93 nm 93 nm 295° / 295° -
O WIMM APT - 0 ft / 0 m 3.55806˚ 98.67172˚ 97 nm 191 nm 276° / 276° Medan/Polonia

Altitude Profile

Advertisement - Login to hide

Weather


0- 5 10 15 20 25 30 35+ Temperature / ° C

Clouds and Precipitation
Forecast for 2017-12-13 06:00 UTC. Updated 22 minutes ago

Ground ~20,000 ft ~40,000 ft Winds

WMKK

Details ICAO WMKK (KUL)
Name Kuala Lumpur Intl - Sepang
Region Malaysia (Peninsular Malaysia)
Timezone Asia/Kuala_Lumpur (UTC+8.0)
Stats Elevation 70 ft / 21 m (AMSL)
Location 2.745578° 101.709913°
Runways 2
Magnetic Variation 0.000° E

METAR

WMKK 130530Z VRB03KT 9999 FEW017CB SCT018 BKN280 32/25 Q1011 NOSIG

Decode

TAF

TAF WMKK 122300Z 1300/1406 04005KT 9000 FEW017CB SCT140 BKN280 TEMPO 1300/1304 3000 TSRA FEW016CB SCT020 TEMPO 1307/1311 3000 TSRA FEW016CB SCT020

Decode

Departure Runways

ID Width Length Bearing (true) Bearing (mag) Surface Threshold Offset Overrun Length
14L 197 ft / 60 m 13,577 ft / 4,138 m 146.13° 146.13° Asphalt 500 ft / 152 m 0 ft / 0 m
14R 197 ft / 60 m 13,337 ft / 4,065 m 146.22° 146.22° Asphalt 500 ft / 152 m 0 ft / 0 m
32L 197 ft / 60 m 13,337 ft / 4,065 m 326.22° 326.22° Asphalt 500 ft / 152 m 0 ft / 0 m
32R 197 ft / 60 m 13,577 ft / 4,138 m 326.13° 326.13° Asphalt 500 ft / 152 m 0 ft / 0 m

WIMM

Details ICAO WIMM (MES)
Name Medan/Polonia
Region Indonesia
Timezone Asia/Jakarta (UTC+7.0)
Stats Elevation 90 ft / 27 m (AMSL)
Location 3.558057° 98.671716°
Runways 1
Magnetic Variation 0.321° W

METAR

WIMM 130500Z 33009KT 9000 FEW018 30/24 Q1011

Decode

TAF

Not found

Destination Runways

ID Width Length Bearing (true) Bearing (mag) Surface Threshold Offset Overrun Length
05 148 ft / 45 m 9,531 ft / 2,905 m 46.55° 46.87° Asphalt 910 ft / 277 m 197 ft / 60 m
23 148 ft / 45 m 9,531 ft / 2,905 m 226.55° 226.87° Asphalt 0 ft / 0 m 325 ft / 99 m

Approach Navaids

Runway Type Ident Frequency Range Bearing (true) Bearing (mag) Slope Elevation
05 Localiser IMDN 110.10 MHz 18 nm / 33 km 47.68° 48.00° - 90 ft / 27 m (AMSL)
05 Glidescope IMDN 110.10 MHz 10 nm / 19 km 46.55° 46.87° 3.00° 90 ft / 27 m (AMSL)

Popular Alternatives